Time;durP1;ratioP1;P1;durP2;ratioP2;P2;SDS_P1;SDS_P2;PMS_P1;PMS_P2;Temp;Humidity;BMP_temperature;BMP_pressure;BME280_temperature;BME280_humidity;BME280_pressure;Samples;Min_cycle;Max_cycle;Signal;HPM_P1;HPM_P2
2024/01/24 00:01:13;;;;;;;1.30;0.90;;;;;;;7.14;100.00;153193.72;5106931;28;20480;-94
2024/01/24 00:03:39;;;;;;;2.30;0.93;;;;;;;7.25;100.00;153222.13;5107813;28;20970;-94
2024/01/24 00:06:07;;;;;;;2.90;1.10;;;;;;;7.28;100.00;153231.13;5090786;28;20472;-95
2024/01/24 00:08:34;;;;;;;1.73;0.83;;;;;;;7.33;100.00;153244.03;5107513;28;20445;-95
2024/01/24 00:11:01;;;;;;;1.50;0.90;;;;;;;7.38;100.00;153255.69;5073272;28;20436;-95
2024/01/24 00:13:29;;;;;;;1.83;0.87;;;;;;;7.41;100.00;153262.16;5107197;28;20434;-93
2024/01/24 00:15:56;;;;;;;2.20;1.13;;;;;;;7.52;100.00;153290.56;5107353;28;20429;-94
2024/01/24 00:18:23;;;;;;;3.20;1.00;;;;;;;7.56;100.00;153300.88;5073612;28;20429;-94
2024/01/24 00:20:50;;;;;;;2.17;0.70;;;;;;;7.59;100.00;153309.94;5073413;28;20457;-94
2024/01/24 00:23:17;;;;;;;4.13;1.20;;;;;;;7.62;100.00;153316.41;5073378;28;20461;-94
2024/01/24 00:25:44;;;;;;;2.20;1.30;;;;;;;7.64;100.00;153322.84;5073585;28;20538;-95
2024/01/24 00:28:11;;;;;;;1.90;0.80;;;;;;;7.65;100.00;153325.41;5073171;28;20999;-94
2024/01/24 00:30:39;;;;;;;1.30;0.90;;;;;;;7.68;100.00;153333.16;5073372;28;20429;-94
2024/01/24 00:33:05;;;;;;;3.77;0.90;;;;;;;7.70;100.00;153338.38;5107135;28;20449;-94
2024/01/24 00:35:33;;;;;;;2.97;1.43;;;;;;;7.74;100.00;153347.38;5073622;28;20453;-95
2024/01/24 00:37:59;;;;;;;3.20;1.10;;;;;;;7.79;100.00;153360.28;5073623;28;20532;-94
2024/01/24 00:40:26;;;;;;;3.27;1.17;;;;;;;7.83;100.00;153370.66;5108229;28;20456;-94
2024/01/24 00:42:53;;;;;;;5.23;1.00;;;;;;;7.83;100.00;153371.94;5075200;28;20436;-95
2024/01/24 00:45:20;;;;;;;1.57;1.00;;;;;;;7.83;100.00;153370.66;5111280;28;20983;-94
2024/01/24 00:47:48;;;;;;;2.30;0.70;;;;;;;7.81;100.00;153366.75;5077377;28;20445;-94
2024/01/24 00:50:15;;;;;;;2.40;0.90;;;;;;;7.83;100.00;153371.94;5077258;28;20456;-95
2024/01/24 00:52:41;;;;;;;3.10;0.97;;;;;;;7.88;100.00;153383.56;5110835;28;20449;-94
2024/01/24 00:55:08;;;;;;;3.90;1.20;;;;;;;7.89;100.00;153387.41;5077145;28;20543;-94
2024/01/24 00:57:35;;;;;;;1.67;1.00;;;;;;;7.92;100.00;153395.19;5076847;28;20460;-94
2024/01/24 01:00:02;;;;;;;3.07;1.10;;;;;;;7.93;100.00;153397.78;5077057;28;20472;-94
2024/01/24 01:02:29;;;;;;;1.80;0.80;;;;;;;7.90;100.00;153388.72;5110701;28;20453;-94
2024/01/24 01:04:57;;;;;;;5.80;0.77;;;;;;;7.87;100.00;153380.97;5110943;28;20510;-94
2024/01/24 01:07:24;;;;;;;2.93;0.90;;;;;;;7.87;100.00;153380.97;5076667;28;20461;-94
2024/01/24 01:09:51;;;;;;;2.73;1.07;;;;;;;7.86;100.00;153378.41;5077251;28;20540;-95
2024/01/24 01:12:18;;;;;;;2.30;0.77;;;;;;;7.85;100.00;153375.81;5076758;28;20486;-95
2024/01/24 01:14:44;;;;;;;4.00;1.30;;;;;;;7.86;100.00;153378.41;5077296;28;20425;-94
2024/01/24 01:17:11;;;;;;;2.17;1.10;;;;;;;7.91;100.00;153392.63;5077125;28;20443;-94
2024/01/24 01:19:38;;;;;;;5.30;1.00;;;;;;;7.94;100.00;153399.09;5077372;28;20429;-95
2024/01/24 01:22:06;;;;;;;2.17;0.97;;;;;;;7.92;100.00;153395.19;5077065;28;20452;-95
2024/01/24 01:24:33;;;;;;;3.63;0.90;;;;;;;7.89;100.00;153386.13;5077274;28;20441;-95
2024/01/24 01:27:00;;;;;;;3.07;1.13;;;;;;;7.88;100.00;153383.56;5076788;28;20480;-94
2024/01/24 01:29:26;;;;;;;3.57;1.23;;;;;;;7.93;100.00;153396.47;5077001;28;20434;-95
2024/01/24 01:31:53;;;;;;;2.10;1.00;;;;;;;7.94;100.00;153399.09;5076865;28;20502;-95
2024/01/24 01:34:20;;;;;;;2.80;1.17;;;;;;;7.93;100.00;153397.78;5115669;28;20532;-94
2024/01/24 01:36:47;;;;;;;2.03;0.80;;;;;;;7.92;100.00;153395.19;5118056;27;20453;-94
2024/01/24 01:39:15;;;;;;;4.23;0.80;;;;;;;7.89;100.00;153386.13;5083839;28;20461;-95
2024/01/24 01:41:46;;;;;;;7.50;1.17;;;;;;;7.90;100.00;153388.72;5081825;28;20500;-94
2024/01/24 01:44:14;;;;;;;1.90;1.00;;;;;;;7.89;100.00;153387.41;5078378;28;20437;-96
2024/01/24 01:46:41;;;;;;;2.17;1.20;;;;;;;7.92;100.00;153393.88;5109824;28;20575;-95
2024/01/24 01:49:08;;;;;;;1.80;0.80;;;;;;;7.90;100.00;153390.03;5076227;28;20448;-95
2024/01/24 01:51:36;;;;;;;1.27;0.73;;;;;;;7.92;100.00;153393.88;5075862;28;20448;-93
2024/01/24 01:54:03;;;;;;;2.40;0.97;;;;;;;7.89;100.00;153386.13;5075752;28;20529;-95
2024/01/24 01:56:31;;;;;;;1.87;1.00;;;;;;;7.88;100.00;153383.56;5076264;28;20824;-96
2024/01/24 01:58:58;;;;;;;1.40;0.70;;;;;;;7.88;100.00;153383.56;5110300;28;20543;-96
2024/01/24 02:01:25;;;;;;;1.77;0.80;;;;;;;7.87;100.00;153380.97;5109958;28;21035;-95
2024/01/24 02:03:52;;;;;;;1.83;0.80;;;;;;;7.87;100.00;153382.25;5081152;28;20445;-95
2024/01/24 02:06:19;;;;;;;3.67;1.03;;;;;;;7.87;100.00;153380.97;5084853;28;20507;-95
2024/01/24 02:08:46;;;;;;;5.00;1.43;;;;;;;7.85;100.00;153377.09;5085976;28;20433;-94
2024/01/24 02:11:13;;;;;;;3.83;1.00;;;;;;;7.85;100.00;153375.81;5077275;28;20465;-95
2024/01/24 02:13:42;;;;;;;1.97;1.10;;;;;;;7.81;100.00;153366.75;5111866;28;20439;-95
2024/01/24 02:16:10;;;;;;;2.43;0.90;;;;;;;7.79;100.00;153360.28;5077277;28;20453;-95
2024/01/24 02:18:37;;;;;;;5.63;1.33;;;;;;;7.79;100.00;153361.59;5078120;28;20465;-95
2024/01/24 02:21:04;;;;;;;1.20;0.70;;;;;;;7.78;100.00;153358.97;5111766;28;20566;-95
2024/01/24 02:23:31;;;;;;;3.07;1.00;;;;;;;7.79;100.00;153360.28;5111179;28;20509;-94
2024/01/24 02:26:00;;;;;;;2.00;0.70;;;;;;;7.77;100.00;153355.13;5077012;28;21043;-96
2024/01/24 02:28:26;;;;;;;2.20;0.67;;;;;;;7.78;100.00;153357.72;5077166;28;20915;-96
2024/01/24 02:30:53;;;;;;;2.13;0.80;;;;;;;7.80;100.00;153364.19;5076521;28;20461;-95
2024/01/24 02:33:20;;;;;;;3.30;0.83;;;;;;;7.79;100.00;153360.28;5111125;28;20470;-95
2024/01/24 02:35:47;;;;;;;1.73;0.80;;;;;;;7.78;100.00;153358.97;5110786;28;20806;-96
2024/01/24 02:38:14;;;;;;;2.23;0.70;;;;;;;7.77;100.00;153355.13;5112140;28;20836;-94
2024/01/24 02:40:40;;;;;;;1.60;0.60;;;;;;;7.77;100.00;153355.13;5077356;28;20437;-95
2024/01/24 02:43:09;;;;;;;1.90;1.07;;;;;;;7.77;100.00;153356.44;5076360;28;20429;-95
2024/01/24 02:45:37;;;;;;;1.77;0.70;;;;;;;7.74;100.00;153348.69;5076542;28;20778;-95
2024/01/24 02:48:04;;;;;;;2.17;0.80;;;;;;;7.72;100.00;153342.22;5077891;28;20470;-95
2024/01/24 02:50:31;;;;;;;1.93;1.00;;;;;;;7.74;100.00;153348.69;5110841;28;20447;-96
2024/01/24 02:52:58;;;;;;;1.60;0.90;;;;;;;7.76;100.00;153352.53;5076388;28;20544;-96
2024/01/24 02:55:25;;;;;;;1.70;0.90;;;;;;;7.74;100.00;153347.38;5076232;28;20793;-96
2024/01/24 02:57:52;;;;;;;1.20;0.83;;;;;;;7.74;100.00;153348.69;5076423;28;20494;-95
2024/01/24 03:00:21;;;;;;;4.10;1.10;;;;;;;7.78;100.00;153357.72;5109962;28;20468;-95
2024/01/24 03:02:48;;;;;;;2.80;0.87;;;;;;;7.79;100.00;153361.59;5075918;28;20440;-96
2024/01/24 03:05:15;;;;;;;4.03;0.70;;;;;;;7.80;100.00;153364.19;5109411;28;20437;-95
2024/01/24 03:07:41;;;;;;;3.43;0.80;;;;;;;7.78;100.00;153357.72;5075709;28;20473;-95
2024/01/24 03:10:09;;;;;;;3.50;0.90;;;;;;;7.76;100.00;153353.84;5075744;28;20452;-94
2024/01/24 03:12:37;;;;;;;1.50;0.70;;;;;;;7.78;100.00;153357.72;5075792;28;20453;-95
2024/01/24 03:15:05;;;;;;;1.57;0.63;;;;;;;7.77;100.00;153355.13;5076292;28;20445;-95
2024/01/24 03:17:33;;;;;;;1.23;0.80;;;;;;;7.79;100.00;153361.59;5075386;28;20475;-96
2024/01/24 03:20:00;;;;;;;9.17;1.20;;;;;;;7.81;100.00;153365.50;5109940;28;20494;-96
2024/01/24 03:22:27;;;;;;;4.93;1.10;;;;;;;7.81;100.00;153365.50;5075624;28;20465;-95
2024/01/24 03:24:54;;;;;;;1.93;0.70;;;;;;;7.85;100.00;153377.09;5075898;28;20430;-95
2024/01/24 03:27:21;;;;;;;1.90;0.90;;;;;;;7.90;100.00;153390.03;5109986;28;20827;-95
2024/01/24 03:29:48;;;;;;;2.60;1.13;;;;;;;7.98;100.00;153410.69;5076102;28;20522;-95
2024/01/24 03:32:16;;;;;;;4.03;0.87;;;;;;;8.02;100.00;153419.75;5075702;28;20445;-95
2024/01/24 03:34:52;;;;;;;1.70;0.70;;;;;;;8.06;100.00;153430.06;5109471;28;20448;-95
2024/01/24 03:37:19;;;;;;;2.97;0.80;;;;;;;8.08;100.00;153435.22;5074843;28;20465;-94
2024/01/24 03:39:46;;;;;;;2.17;0.90;;;;;;;8.12;100.00;153444.28;5109893;28;20457;-96
2024/01/24 03:42:12;;;;;;;1.80;0.90;;;;;;;8.13;100.00;153446.88;5075643;28;20506;-94
2024/01/24 03:44:39;;;;;;;2.77;1.13;;;;;;;8.19;100.00;153463.66;5076790;28;20467;-96
2024/01/24 03:47:06;;;;;;;1.53;1.00;;;;;;;8.24;100.00;153476.59;5077016;28;20477;-96
2024/01/24 03:49:34;;;;;;;2.60;1.17;;;;;;;8.30;100.00;153492.16;5077699;28;20486;-95
2024/01/24 03:52:03;;;;;;;2.23;0.80;;;;;;;8.34;100.00;153501.22;5077243;28;20453;-94
2024/01/24 03:54:29;;;;;;;2.60;0.90;;;;;;;8.37;100.00;153508.94;5075599;28;20433;-95
2024/01/24 03:56:57;;;;;;;2.37;1.10;;;;;;;8.36;100.00;153507.69;5076025;28;20449;-96
2024/01/24 03:59:24;;;;;;;1.67;0.80;;;;;;;8.38;100.00;153512.84;5075473;28;20535;-96
2024/01/24 04:01:51;;;;;;;2.70;1.07;;;;;;;8.41;100.00;153520.59;5075205;28;21137;-95
2024/01/24 04:04:18;;;;;;;1.80;1.20;;;;;;;8.46;100.00;153533.53;5075483;28;20441;-95
2024/01/24 04:06:44;;;;;;;2.40;0.70;;;;;;;8.45;100.00;153530.91;5075268;28;20476;-94
2024/01/24 04:09:12;;;;;;;1.30;0.80;;;;;;;8.51;100.00;153545.13;5109144;28;21018;-95
2024/01/24 04:11:39;;;;;;;3.27;1.17;;;;;;;8.55;100.00;153556.75;5108447;28;20445;-92
2024/01/24 04:14:07;;;;;;;2.60;1.33;;;;;;;8.52;100.00;153547.75;5107339;28;20966;-94
2024/01/24 04:16:35;;;;;;;1.93;0.80;;;;;;;8.50;100.00;153543.84;5073430;28;20453;-95
2024/01/24 04:19:02;;;;;;;2.40;1.40;;;;;;;8.51;100.00;153545.13;5110985;28;20476;-95
2024/01/24 04:21:28;;;;;;;2.57;1.20;;;;;;;8.54;100.00;153554.19;5111244;28;20536;-94
2024/01/24 04:23:55;;;;;;;1.80;0.90;;;;;;;8.59;100.00;153565.81;5111111;28;20453;-95
2024/01/24 04:26:23;;;;;;;2.00;0.90;;;;;;;8.59;100.00;153565.81;5077029;28;20555;-95
2024/01/24 04:28:50;;;;;;;2.30;1.20;;;;;;;8.62;100.00;153573.59;5076999;28;21022;-95
2024/01/24 04:31:16;;;;;;;1.27;0.83;;;;;;;8.63;100.00;153574.88;5079912;27;20484;-94
2024/01/24 04:33:43;;;;;;;2.23;1.00;;;;;;;8.63;100.00;153574.88;5117642;27;20588;-95
2024/01/24 04:36:10;;;;;;;3.30;1.00;;;;;;;8.61;100.00;153570.97;5105747;28;20448;-94
2024/01/24 04:38:38;;;;;;;2.30;1.13;;;;;;;8.58;100.00;153564.53;5097165;28;20479;-94
2024/01/24 04:41:04;;;;;;;2.00;1.00;;;;;;;8.64;100.00;153578.75;5097055;28;20436;-94
2024/01/24 04:43:32;;;;;;;1.70;0.93;;;;;;;8.69;100.00;153590.38;5097057;28;20471;-95
2024/01/24 04:45:59;;;;;;;3.20;1.10;;;;;;;8.68;100.00;153587.81;5097216;28;20432;-95
2024/01/24 04:48:26;;;;;;;2.30;1.17;;;;;;;8.71;100.00;153596.81;5097264;28;20566;-95
2024/01/24 04:50:52;;;;;;;3.33;1.10;;;;;;;8.75;100.00;153605.91;5097199;28;20547;-95
2024/01/24 04:53:19;;;;;;;2.33;1.10;;;;;;;8.74;100.00;153604.59;5098516;28;20452;-93
2024/01/24 04:55:46;;;;;;;1.77;0.97;;;;;;;8.73;100.00;153600.72;5098084;28;20498;-94
2024/01/24 04:58:13;;;;;;;2.30;1.17;;;;;;;8.71;100.00;153596.81;5096706;28;20455;-94
2024/01/24 05:00:41;;;;;;;2.30;1.00;;;;;;;8.81;100.00;153621.41;5130744;27;20479;-94
2024/01/24 05:03:08;;;;;;;5.03;1.23;;;;;;;8.82;100.00;153625.28;5131033;27;20547;-94
2024/01/24 05:05:34;;;;;;;2.93;1.07;;;;;;;8.82;100.00;153623.97;5130575;27;20543;-94
2024/01/24 05:08:01;;;;;;;2.53;1.00;;;;;;;8.82;100.00;153623.97;5096654;28;21446;-94
2024/01/24 05:10:28;;;;;;;1.80;1.20;;;;;;;8.89;100.00;153642.13;5130865;27;20497;-95
2024/01/24 05:12:54;;;;;;;3.80;1.23;;;;;;;8.89;100.00;153642.13;5096876;28;21075;-95
2024/01/24 05:15:21;;;;;;;1.93;1.10;;;;;;;8.93;100.00;153653.72;5097039;28;20832;-94
2024/01/24 05:17:49;;;;;;;3.00;1.40;;;;;;;8.96;100.00;153660.19;5096774;28;20444;-94
2024/01/24 05:20:17;;;;;;;1.87;1.20;;;;;;;8.98;100.00;153665.34;5096644;28;20420;-95
2024/01/24 05:22:44;;;;;;;2.47;1.60;;;;;;;9.03;100.00;153678.28;5130954;27;20519;-93
2024/01/24 05:25:10;;;;;;;1.70;1.20;;;;;;;9.02;100.00;153677.03;5098355;28;20455;-93
2024/01/24 05:27:37;;;;;;;1.40;1.00;;;;;;;9.09;100.00;153693.81;5099308;28;20507;-93
2024/01/24 05:30:05;;;;;;;3.03;1.60;;;;;;;9.08;100.00;153691.25;5131894;27;20436;-87
2024/01/24 05:32:31;;;;;;;1.70;1.00;;;;;;;9.11;100.00;153698.97;5118522;28;20436;-93
2024/01/24 05:34:59;;;;;;;2.60;1.30;;;;;;;9.12;100.00;153701.59;5100545;28;20432;-95
2024/01/24 05:37:26;;;;;;;2.07;1.30;;;;;;;9.16;100.00;153711.91;5130913;27;20432;-94
2024/01/24 05:39:53;;;;;;;1.93;1.00;;;;;;;9.19;100.00;153719.69;5130174;27;20444;-95
2024/01/24 05:42:20;;;;;;;4.00;1.20;;;;;;;9.26;100.00;153736.50;5096248;28;20950;-95
2024/01/24 05:44:47;;;;;;;4.10;1.03;;;;;;;9.30;100.00;153746.84;5095973;28;20455;-94
2024/01/24 05:47:13;;;;;;;2.23;1.20;;;;;;;9.33;100.00;153755.91;5096071;28;20473;-93
2024/01/24 05:49:40;;;;;;;1.40;1.07;;;;;;;9.33;100.00;153754.59;5095640;28;20435;-95
2024/01/24 05:52:08;;;;;;;1.00;0.80;;;;;;;9.34;100.00;153758.50;5096277;28;20429;-94
2024/01/24 05:54:34;;;;;;;2.03;1.13;;;;;;;9.35;100.00;153761.06;5095672;28;20440;-94
2024/01/24 05:57:01;;;;;;;4.50;1.40;;;;;;;9.36;100.00;153763.66;5096076;28;20450;-95
2024/01/24 05:59:28;;;;;;;3.33;1.33;;;;;;;9.36;100.00;153762.38;5095678;28;20443;-94
2024/01/24 06:01:55;;;;;;;1.80;1.20;;;;;;;9.34;100.00;153758.50;5095427;28;20513;-94
2024/01/24 06:04:21;;;;;;;3.37;0.90;;;;;;;9.39;100.00;153771.44;5095348;28;20808;-94
2024/01/24 06:06:48;;;;;;;1.90;1.07;;;;;;;9.39;100.00;153771.44;5129587;27;20471;-94
2024/01/24 06:09:18;;;;;;;1.30;0.90;;;;;;;9.44;100.00;153784.38;5095484;28;20440;-94
2024/01/24 06:11:45;;;;;;;2.60;1.20;;;;;;;9.51;100.00;153802.47;5095469;28;20428;-95
2024/01/24 06:14:12;;;;;;;1.40;1.00;;;;;;;9.53;100.00;153807.63;5093877;28;20946;-94
2024/01/24 06:16:38;;;;;;;2.20;1.13;;;;;;;9.55;100.00;153811.53;5098021;28;20429;-94
2024/01/24 06:19:05;;;;;;;1.97;1.13;;;;;;;9.57;100.00;153816.69;5094914;28;20452;-94
2024/01/24 06:21:31;;;;;;;3.10;1.07;;;;;;;9.57;100.00;153818.00;5094927;28;20440;-94
2024/01/24 06:23:58;;;;;;;2.30;1.13;;;;;;;9.59;100.00;153823.16;5095212;28;20455;-95
2024/01/24 06:26:26;;;;;;;1.30;0.80;;;;;;;9.63;100.00;153832.25;5095162;28;20433;-94
2024/01/24 06:28:53;;;;;;;2.23;1.17;;;;;;;9.63;100.00;153833.53;5094924;28;20483;-93
2024/01/24 06:31:19;;;;;;;1.33;1.13;;;;;;;9.68;100.00;153845.16;5094188;28;20464;-94
2024/01/24 06:33:46;;;;;;;1.70;1.00;;;;;;;9.70;100.00;153851.63;5075266;28;20457;-94
2024/01/24 06:36:13;;;;;;;3.97;1.10;;;;;;;9.72;100.00;153856.81;5087959;28;20452;-94
2024/01/24 06:38:40;;;;;;;2.00;1.40;;;;;;;9.73;100.00;153859.41;5128514;27;20456;-94
2024/01/24 06:41:06;;;;;;;2.03;1.10;;;;;;;9.75;100.00;153863.28;5115643;27;20460;-93
2024/01/24 06:43:37;;;;;;;2.40;1.40;;;;;;;9.76;100.00;153867.19;5077619;28;20988;-94
2024/01/24 06:46:04;;;;;;;2.30;1.27;;;;;;;9.76;100.00;153867.19;5087271;28;20432;-93
2024/01/24 06:48:31;;;;;;;2.37;1.20;;;;;;;9.80;100.00;153877.50;5111383;27;20829;-93
2024/01/24 06:50:59;;;;;;;1.37;0.97;;;;;;;9.82;100.00;153880.13;5093676;28;20449;-94
2024/01/24 06:53:26;;;;;;;4.20;1.10;;;;;;;9.86;100.00;153890.44;5122087;27;21381;-94
2024/01/24 06:55:52;;;;;;;1.50;1.20;;;;;;;9.88;100.00;153895.59;5094223;28;20431;-94
2024/01/24 06:58:19;;;;;;;2.07;1.17;;;;;;;9.87;100.00;153894.34;5094305;28;20459;-94
2024/01/24 07:00:47;;;;;;;1.70;1.10;;;;;;;9.93;100.00;153908.59;5090305;28;20873;-94
2024/01/24 07:03:15;;;;;;;1.40;1.00;;;;;;;9.96;100.00;153916.31;5073499;28;20437;-94
2024/01/24 07:05:43;;;;;;;1.23;0.87;;;;;;;9.97;100.00;153918.91;5108588;28;20472;-93
2024/01/24 07:08:10;;;;;;;2.00;1.00;;;;;;;10.01;100.00;153929.25;5093030;28;20998;-94
2024/01/24 07:10:36;;;;;;;2.30;1.20;;;;;;;10.02;100.00;153933.16;5093725;28;20999;-93
2024/01/24 07:13:03;;;;;;;3.47;1.13;;;;;;;10.06;100.00;153943.50;5096715;28;20460;-94
2024/01/24 07:15:30;;;;;;;1.60;1.20;;;;;;;10.04;100.00;153938.34;5097226;28;20444;-93
2024/01/24 07:17:58;;;;;;;1.10;0.83;;;;;;;10.04;100.00;153937.03;5079171;28;20453;-94
2024/01/24 07:20:25;;;;;;;6.30;1.53;;;;;;;10.10;100.00;153953.88;5107266;28;20488;-94
2024/01/24 07:22:52;;;;;;;2.63;1.20;;;;;;;10.09;100.00;153951.25;5086601;28;20440;-94
2024/01/24 07:25:19;;;;;;;1.90;1.43;;;;;;;10.11;100.00;153956.44;5092878;28;20931;-94
2024/01/24 07:27:46;;;;;;;3.90;0.87;;;;;;;10.10;100.00;153953.88;5082793;28;20464;-94
2024/01/24 07:30:15;;;;;;;2.97;1.00;;;;;;;10.11;100.00;153955.19;5093158;28;20456;-94
2024/01/24 07:32:42;;;;;;;1.20;0.80;;;;;;;10.10;100.00;153952.56;5093072;28;20460;-94
2024/01/24 07:35:10;;;;;;;1.73;1.20;;;;;;;10.14;100.00;153964.25;5093037;28;20463;-93
2024/01/24 07:37:37;;;;;;;2.73;1.07;;;;;;;10.15;100.00;153966.88;5084942;28;20464;-93
2024/01/24 07:40:04;;;;;;;1.50;1.00;;;;;;;10.22;100.00;153983.66;5088922;28;20470;-93
2024/01/24 07:42:31;;;;;;;3.17;1.20;;;;;;;10.23;100.00;153986.28;5096435;28;20444;-93
2024/01/24 07:44:59;;;;;;;1.70;1.00;;;;;;;10.23;100.00;153986.28;5093507;28;20456;-94
2024/01/24 07:47:25;;;;;;;2.13;1.17;;;;;;;10.24;100.00;153988.88;5113785;27;20954;-93
2024/01/24 07:49:55;;;;;;;4.63;1.10;;;;;;;10.24;100.00;153990.19;5092302;27;20945;-93
2024/01/24 07:52:26;;;;;;;1.63;0.90;;;;;;;10.28;100.00;153999.22;5097405;22;20513;-79
2024/01/24 07:54:53;;;;;;;2.23;1.10;;;;;;;10.30;100.00;154004.38;5055801;28;20501;-79
2024/01/24 07:57:20;;;;;;;1.73;1.03;;;;;;;10.35;100.00;154017.38;5059132;28;20955;-79
2024/01/24 07:59:50;;;;;;;1.60;0.80;;;;;;;10.37;100.00;154023.84;5057869;28;20466;-78
2024/01/24 08:02:18;;;;;;;1.50;1.03;;;;;;;10.40;100.00;154030.31;5057806;28;20483;-78
2024/01/24 08:04:46;;;;;;;1.50;0.87;;;;;;;10.43;100.00;154038.09;5055702;28;20462;-78
2024/01/24 08:07:12;;;;;;;1.73;0.50;;;;;;;10.42;100.00;154034.16;5052485;28;21004;-79
2024/01/24 08:09:40;;;;;;;1.40;0.73;;;;;;;10.40;100.00;154030.31;5055569;28;20485;-80
2024/01/24 08:12:07;;;;;;;1.83;0.73;;;;;;;10.45;100.00;154043.25;5057455;28;20505;-79
2024/01/24 08:14:34;;;;;;;1.60;0.90;;;;;;;10.48;100.00;154051.03;5073309;28;20465;-79
2024/01/24 08:17:02;;;;;;;1.50;0.80;;;;;;;10.46;100.00;154045.81;5053576;28;20448;-79
2024/01/24 08:19:28;;;;;;;1.93;0.60;;;;;;;10.51;100.00;154058.75;5056648;28;20459;-79
2024/01/24 08:21:55;;;;;;;1.30;0.70;;;;;;;10.52;100.00;154060.06;5055959;28;20964;-79
2024/01/24 08:24:21;;;;;;;1.27;0.70;;;;;;;10.58;100.00;154076.91;5059299;28;20463;-78
2024/01/24 08:26:50;;;;;;;1.20;0.70;;;;;;;10.58;100.00;154076.91;5055970;28;20856;-79
2024/01/24 08:29:17;;;;;;;1.90;1.10;;;;;;;10.55;100.00;154069.13;5053710;28;20496;-79
2024/01/24 08:31:44;;;;;;;1.07;0.60;;;;;;;10.58;100.00;154075.59;5056456;28;21022;-79
2024/01/24 08:34:11;;;;;;;2.30;1.10;;;;;;;10.62;100.00;154085.94;5058120;28;21024;-78
2024/01/24 08:36:39;;;;;;;1.20;0.70;;;;;;;10.64;100.00;154091.16;5061009;28;20936;-79
2024/01/24 08:39:06;;;;;;;1.37;0.70;;;;;;;10.65;100.00;154095.03;5062798;28;20505;-78
2024/01/24 08:41:32;;;;;;;1.07;0.60;;;;;;;10.68;100.00;154101.50;5073291;28;20490;-78
2024/01/24 08:44:00;;;;;;;1.30;0.70;;;;;;;10.72;100.00;154113.13;5072693;28;20481;-78
2024/01/24 08:46:27;;;;;;;2.30;0.40;;;;;;;10.76;100.00;154123.53;5057149;28;20781;-78
2024/01/24 08:48:53;;;;;;;1.07;0.60;;;;;;;10.77;100.00;154126.13;5057814;28;20525;-78
2024/01/24 08:51:21;;;;;;;1.97;0.60;;;;;;;10.80;100.00;154132.59;5056998;28;20601;-79
2024/01/24 08:53:47;;;;;;;1.00;0.60;;;;;;;10.82;100.00;154139.06;5071076;28;21000;-78
2024/01/24 08:56:13;;;;;;;1.40;0.50;;;;;;;10.86;100.00;154149.41;5055152;28;20667;-79
2024/01/24 08:58:40;;;;;;;1.10;0.40;;;;;;;10.89;100.00;154155.88;5053786;28;20508;-78
2024/01/24 09:01:08;;;;;;;1.10;0.70;;;;;;;10.92;100.00;154164.97;5071178;28;20453;-78
2024/01/24 09:03:34;;;;;;;1.43;0.70;;;;;;;10.97;100.00;154177.91;5055007;28;20555;-79
2024/01/24 09:06:01;;;;;;;1.30;0.50;;;;;;;10.98;100.00;154179.22;5058874;28;20524;-79
2024/01/24 09:08:27;;;;;;;1.17;0.50;;;;;;;11.00;100.00;154184.38;5058560;28;20531;-78
2024/01/24 09:10:54;;;;;;;1.77;0.60;;;;;;;11.00;100.00;154185.69;5211230;22;20490;-79
2024/01/24 09:13:22;;;;;;;1.07;0.47;;;;;;;11.04;100.00;154193.47;5042316;28;20468;-79
2024/01/24 09:15:48;;;;;;;1.50;0.70;;;;;;;11.07;100.00;154201.25;5057727;28;20549;-79
2024/01/24 09:18:17;;;;;;;1.10;0.40;;;;;;;11.07;100.00;154202.50;5041435;28;21104;-79
2024/01/24 09:20:43;;;;;;;1.10;0.50;;;;;;;11.08;100.00;154203.81;5057906;28;20518;-79
2024/01/24 09:23:10;;;;;;;1.33;0.40;;;;;;;11.09;100.00;154206.41;5059566;28;20443;-79
2024/01/24 09:25:37;;;;;;;1.00;0.40;;;;;;;11.12;100.00;154215.44;5037539;28;20509;-79
2024/01/24 09:28:04;;;;;;;1.60;0.47;;;;;;;11.12;100.00;154215.44;5041518;28;20470;-79
2024/01/24 09:30:31;;;;;;;1.00;0.40;;;;;;;11.13;100.00;154216.75;5055664;28;20483;-79
2024/01/24 09:33:07;;;;;;;1.10;0.50;;;;;;;11.14;100.00;154219.38;5060397;28;20453;-79
2024/01/24 09:35:35;;;;;;;1.67;0.60;;;;;;;11.14;100.00;154220.66;5055972;28;20463;-79
2024/01/24 09:38:01;;;;;;;1.00;0.40;;;;;;;11.18;100.00;154229.72;5056446;28;20451;-79
2024/01/24 09:40:27;;;;;;;1.50;0.60;;;;;;;11.20;100.00;154236.19;5057515;28;20458;-79
2024/01/24 09:42:54;;;;;;;0.83;0.33;;;;;;;11.23;100.00;154242.66;5057578;28;20472;-79
2024/01/24 09:45:23;;;;;;;1.00;0.50;;;;;;;11.27;100.00;154254.34;5056940;28;20454;-79
2024/01/24 09:47:50;;;;;;;0.97;0.43;;;;;;;11.33;100.00;154269.84;5057822;28;20446;-79
2024/01/24 09:50:17;;;;;;;1.00;0.60;;;;;;;11.36;100.00;154277.63;5056160;28;20449;-79
2024/01/24 09:52:45;;;;;;;1.00;0.40;;;;;;;11.40;100.00;154286.72;5056239;28;20489;-79
2024/01/24 09:55:13;;;;;;;0.90;0.40;;;;;;;11.43;100.00;154295.81;5056910;28;20520;-79
2024/01/24 09:57:40;;;;;;;1.10;0.40;;;;;;;11.43;100.00;154294.50;5039896;28;21813;-79
2024/01/24 10:00:09;;;;;;;0.80;0.40;;;;;;;11.47;100.00;154304.84;5040212;28;20509;-79
2024/01/24 10:02:35;;;;;;;0.90;0.30;;;;;;;11.50;100.00;154312.63;5056164;28;20553;-79
2024/01/24 10:05:04;;;;;;;0.70;0.30;;;;;;;11.53;100.00;154321.72;5056770;28;20458;-79
2024/01/24 10:07:31;;;;;;;0.70;0.30;;;;;;;11.52;100.00;154319.09;5072989;28;20879;-79
2024/01/24 10:10:06;;;;;;;1.37;0.40;;;;;;;11.57;100.00;154330.75;5054967;28;20848;-79
2024/01/24 10:12:32;;;;;;;1.00;0.37;;;;;;;11.60;100.00;154339.84;5047357;28;20854;-79
2024/01/24 10:14:59;;;;;;;1.67;0.50;;;;;;;11.63;100.00;154346.31;5054029;28;20470;-79
2024/01/24 10:17:25;;;;;;;0.80;0.30;;;;;;;11.62;100.00;154345.00;5039841;28;20458;-79
2024/01/24 10:19:52;;;;;;;0.90;0.30;;;;;;;11.68;100.00;154359.28;5054076;28;20470;-79
2024/01/24 10:22:21;;;;;;;0.90;0.23;;;;;;;11.73;100.00;154372.28;5056308;28;20457;-79
2024/01/24 10:24:48;;;;;;;0.83;0.40;;;;;;;11.76;100.00;154380.06;5055589;28;20492;-79
2024/01/24 10:27:16;;;;;;;1.33;0.40;;;;;;;11.80;100.00;154389.16;5055949;28;20469;-79
2024/01/24 10:29:44;;;;;;;1.20;0.43;;;;;;;11.82;100.00;154395.63;5055132;28;20518;-79
2024/01/24 10:32:10;;;;;;;1.20;0.30;;;;;;;11.83;100.00;154398.22;5057385;28;20458;-79
2024/01/24 10:34:37;;;;;;;2.80;0.40;;;;;;;11.80;100.00;154390.44;5052869;28;20462;-79
2024/01/24 10:37:04;;;;;;;1.10;0.30;;;;;;;11.82;100.00;154395.63;5055645;28;20461;-79
2024/01/24 10:39:39;;;;;;;1.07;0.40;;;;;;;11.88;100.00;154409.88;5038760;28;20640;-79
2024/01/24 10:42:07;;;;;;;0.93;0.30;;;;;;;11.92;100.00;154421.53;5055837;28;20450;-79
2024/01/24 10:44:35;;;;;;;0.77;0.30;;;;;;;11.98;100.00;154437.09;5054424;28;20562;-79
2024/01/24 10:47:02;;;;;;;1.10;0.30;;;;;;;12.04;100.00;154452.69;5054899;28;20560;-79
2024/01/24 10:49:29;;;;;;;0.90;0.40;;;;;;;12.08;100.00;154463.03;5056137;28;20836;-79
2024/01/24 10:51:55;;;;;;;1.03;0.40;;;;;;;12.11;100.00;154470.81;5055336;28;20463;-80
2024/01/24 10:54:22;;;;;;;0.90;0.50;;;;;;;12.16;100.00;154483.78;5054514;28;20462;-79
2024/01/24 10:56:50;;;;;;;0.80;0.37;;;;;;;12.21;100.00;154496.72;5055491;28;20489;-79
2024/01/24 10:59:17;;;;;;;2.10;0.40;;;;;;;12.28;100.00;154512.31;5054811;28;20864;-79
2024/01/24 11:01:45;;;;;;;3.43;0.40;;;;;;;12.29;100.00;154516.16;5053982;28;20458;-79
2024/01/24 11:04:15;;;;;;;0.90;0.30;;;;;;;12.30;100.00;154517.47;5055528;28;20818;-79
2024/01/24 11:06:45;;;;;;;1.90;0.80;;;;;;;12.29;100.00;154514.84;5037819;28;21013;-79
2024/01/24 11:09:20;;;;;;;3.17;0.83;;;;;;;12.29;100.00;154514.84;5054514;28;20471;-79
2024/01/24 11:11:47;;;;;;;0.80;0.30;;;;;;;12.29;100.00;154514.84;5038318;28;20485;-79
2024/01/24 11:14:14;;;;;;;1.67;0.40;;;;;;;12.27;100.00;154509.69;5054038;28;20458;-79
2024/01/24 11:16:41;;;;;;;1.90;0.30;;;;;;;12.23;100.00;154500.66;5054564;28;20454;-78
2024/01/24 11:19:21;;;;;;;0.70;0.30;;;;;;;12.20;100.00;154494.13;5036653;28;20797;-78
2024/01/24 11:21:47;;;;;;;1.47;0.40;;;;;;;12.14;100.00;154477.28;5037986;28;20870;-78